sensor_id;sensor_type;location;lat;lon;timestamp;pressure;altitude;pressure_sealevel;temperature;humidity
39267;BME280;24967;51.154;13.812;2022-11-20T00:00:29;99155.84;;;-3.47;69.08
39267;BME280;24967;51.154;13.812;2022-11-20T00:02:56;99153.47;;;-3.51;68.49
39267;BME280;24967;51.154;13.812;2022-11-20T00:05:24;99148.63;;;-3.59;68.69
39267;BME280;24967;51.154;13.812;2022-11-20T00:07:54;99147.88;;;-3.80;68.98
39267;BME280;24967;51.154;13.812;2022-11-20T00:10:21;99153.84;;;-3.78;69.17
39267;BME280;24967;51.154;13.812;2022-11-20T00:12:49;99152.09;;;-3.77;69.14
39267;BME280;24967;51.154;13.812;2022-11-20T00:15:17;99148.28;;;-3.70;69.12
39267;BME280;24967;51.154;13.812;2022-11-20T00:17:45;99151.81;;;-3.71;69.33
39267;BME280;24967;51.154;13.812;2022-11-20T00:20:12;99158.47;;;-3.65;69.65
39267;BME280;24967;51.154;13.812;2022-11-20T00:22:40;99150.59;;;-3.64;69.37
39267;BME280;24967;51.154;13.812;2022-11-20T00:25:10;99150.53;;;-3.62;69.06
39267;BME280;24967;51.154;13.812;2022-11-20T00:27:38;99145.41;;;-3.64;69.24
39267;BME280;24967;51.154;13.812;2022-11-20T00:30:06;99153.88;;;-3.60;69.50
39267;BME280;24967;51.154;13.812;2022-11-20T00:32:34;99162.88;;;-3.67;69.46
39267;BME280;24967;51.154;13.812;2022-11-20T00:35:02;99159.50;;;-3.70;69.48
39267;BME280;24967;51.154;13.812;2022-11-20T00:37:30;99164.84;;;-3.73;69.47
39267;BME280;24967;51.154;13.812;2022-11-20T00:39:58;99159.59;;;-3.71;69.62
39267;BME280;24967;51.154;13.812;2022-11-20T00:42:28;99161.78;;;-3.62;69.69
39267;BME280;24967;51.154;13.812;2022-11-20T00:44:58;99171.25;;;-3.61;69.58
39267;BME280;24967;51.154;13.812;2022-11-20T00:47:25;99164.22;;;-3.59;69.62
39267;BME280;24967;51.154;13.812;2022-11-20T00:49:53;99171.31;;;-3.62;69.36
39267;BME280;24967;51.154;13.812;2022-11-20T00:52:21;99165.44;;;-3.66;69.35
39267;BME280;24967;51.154;13.812;2022-11-20T00:54:48;99169.63;;;-3.63;69.58
39267;BME280;24967;51.154;13.812;2022-11-20T00:57:16;99165.47;;;-3.49;69.23
39267;BME280;24967;51.154;13.812;2022-11-20T00:59:45;99157.34;;;-3.79;69.62
39267;BME280;24967;51.154;13.812;2022-11-20T01:02:13;99168.09;;;-3.67;69.61
39267;BME280;24967;51.154;13.812;2022-11-20T01:04:41;99173.16;;;-3.83;70.36
39267;BME280;24967;51.154;13.812;2022-11-20T01:07:09;99166.50;;;-4.09;71.33
39267;BME280;24967;51.154;13.812;2022-11-20T01:09:46;99172.50;;;-3.88;71.16
39267;BME280;24967;51.154;13.812;2022-11-20T01:12:13;99174.91;;;-3.84;70.98
39267;BME280;24967;51.154;13.812;2022-11-20T01:14:39;99176.31;;;-3.77;70.89
39267;BME280;24967;51.154;13.812;2022-11-20T01:17:09;99180.25;;;-3.87;70.96
39267;BME280;24967;51.154;13.812;2022-11-20T01:19:36;99178.09;;;-3.98;71.68
39267;BME280;24967;51.154;13.812;2022-11-20T01:22:04;99177.13;;;-3.95;71.83
39267;BME280;24967;51.154;13.812;2022-11-20T01:24:37;99170.69;;;-3.86;71.33
39267;BME280;24967;51.154;13.812;2022-11-20T01:27:05;99180.84;;;-3.82;71.64
39267;BME280;24967;51.154;13.812;2022-11-20T01:29:32;99167.72;;;-3.79;71.21
39267;BME280;24967;51.154;13.812;2022-11-20T01:32:00;99170.81;;;-3.71;71.45
39267;BME280;24967;51.154;13.812;2022-11-20T01:34:29;99170.41;;;-3.80;71.17
39267;BME280;24967;51.154;13.812;2022-11-20T01:36:57;99160.97;;;-4.02;71.82
39267;BME280;24967;51.154;13.812;2022-11-20T01:39:25;99161.81;;;-4.01;72.28
39267;BME280;24967;51.154;13.812;2022-11-20T01:41:54;99162.38;;;-3.95;72.32
39267;BME280;24967;51.154;13.812;2022-11-20T01:44:44;99158.53;;;-4.05;72.05
39267;BME280;24967;51.154;13.812;2022-11-20T01:47:13;99157.09;;;-4.12;72.95
39267;BME280;24967;51.154;13.812;2022-11-20T01:49:44;99152.56;;;-4.07;72.39
39267;BME280;24967;51.154;13.812;2022-11-20T01:52:15;99148.56;;;-4.14;72.57
39267;BME280;24967;51.154;13.812;2022-11-20T01:54:44;99152.41;;;-4.04;72.54
39267;BME280;24967;51.154;13.812;2022-11-20T01:57:14;99137.16;;;-4.11;72.57
39267;BME280;24967;51.154;13.812;2022-11-20T01:59:43;99139.09;;;-3.96;72.20
39267;BME280;24967;51.154;13.812;2022-11-20T02:02:11;99136.84;;;-4.04;72.39
39267;BME280;24967;51.154;13.812;2022-11-20T02:04:39;99145.41;;;-4.02;72.55
39267;BME280;24967;51.154;13.812;2022-11-20T02:07:08;99143.22;;;-3.92;72.21
39267;BME280;24967;51.154;13.812;2022-11-20T02:09:36;99136.84;;;-3.85;72.25
39267;BME280;24967;51.154;13.812;2022-11-20T02:12:04;99148.78;;;-3.81;71.68
39267;BME280;24967;51.154;13.812;2022-11-20T02:14:51;99141.75;;;-3.79;71.96
39267;BME280;24967;51.154;13.812;2022-11-20T02:17:21;99134.78;;;-3.78;71.44
39267;BME280;24967;51.154;13.812;2022-11-20T02:19:48;99140.06;;;-3.80;71.49
39267;BME280;24967;51.154;13.812;2022-11-20T02:22:18;99136.69;;;-3.82;71.31
39267;BME280;24967;51.154;13.812;2022-11-20T02:24:50;99135.03;;;-3.83;71.48
39267;BME280;24967;51.154;13.812;2022-11-20T02:27:18;99134.66;;;-3.75;71.54
39267;BME280;24967;51.154;13.812;2022-11-20T02:29:46;99140.50;;;-3.70;71.67
39267;BME280;24967;51.154;13.812;2022-11-20T02:32:17;99137.19;;;-3.74;71.15
39267;BME280;24967;51.154;13.812;2022-11-20T02:34:44;99145.78;;;-3.72;71.43
39267;BME280;24967;51.154;13.812;2022-11-20T02:37:11;99137.34;;;-3.77;71.22
39267;BME280;24967;51.154;13.812;2022-11-20T02:39:38;99133.97;;;-3.79;70.89
39267;BME280;24967;51.154;13.812;2022-11-20T02:42:08;99136.41;;;-3.76;71.09
39267;BME280;24967;51.154;13.812;2022-11-20T02:44:35;99134.19;;;-3.83;70.66
39267;BME280;24967;51.154;13.812;2022-11-20T02:47:03;99141.97;;;-3.83;70.89
39267;BME280;24967;51.154;13.812;2022-11-20T02:49:31;99132.91;;;-3.94;70.55
39267;BME280;24967;51.154;13.812;2022-11-20T02:51:58;99130.88;;;-3.87;70.52
39267;BME280;24967;51.154;13.812;2022-11-20T02:54:26;99136.00;;;-3.85;70.76
39267;BME280;24967;51.154;13.812;2022-11-20T02:56:54;99135.22;;;-3.87;70.41
39267;BME280;24967;51.154;13.812;2022-11-20T02:59:23;99132.63;;;-3.87;70.55
39267;BME280;24967;51.154;13.812;2022-11-20T03:01:51;99132.56;;;-3.86;70.51
39267;BME280;24967;51.154;13.812;2022-11-20T03:04:19;99133.34;;;-3.84;70.23
39267;BME280;24967;51.154;13.812;2022-11-20T03:06:46;99129.41;;;-3.93;70.23
39267;BME280;24967;51.154;13.812;2022-11-20T03:09:14;99125.75;;;-3.88;70.25
39267;BME280;24967;51.154;13.812;2022-11-20T03:11:42;99126.59;;;-3.88;70.15
39267;BME280;24967;51.154;13.812;2022-11-20T03:14:10;99124.00;;;-3.88;70.21
39267;BME280;24967;51.154;13.812;2022-11-20T03:16:39;99124.97;;;-3.91;70.12
39267;BME280;24967;51.154;13.812;2022-11-20T03:19:06;99118.78;;;-3.88;70.34
39267;BME280;24967;51.154;13.812;2022-11-20T03:21:33;99112.72;;;-3.87;70.39
39267;BME280;24967;51.154;13.812;2022-11-20T03:24:00;99112.13;;;-3.94;70.00
39267;BME280;24967;51.154;13.812;2022-11-20T03:26:28;99109.53;;;-3.94;70.23
39267;BME280;24967;51.154;13.812;2022-11-20T03:28:56;99106.72;;;-3.89;70.08
39267;BME280;24967;51.154;13.812;2022-11-20T03:31:23;99106.50;;;-3.84;70.28
39267;BME280;24967;51.154;13.812;2022-11-20T03:33:52;99108.34;;;-3.86;69.74
39267;BME280;24967;51.154;13.812;2022-11-20T03:36:19;99107.44;;;-3.85;69.54
39267;BME280;24967;51.154;13.812;2022-11-20T03:38:46;99106.66;;;-3.87;69.77
39267;BME280;24967;51.154;13.812;2022-11-20T03:41:15;99109.53;;;-3.94;69.55
39267;BME280;24967;51.154;13.812;2022-11-20T03:43:46;99100.75;;;-3.91;69.87
39267;BME280;24967;51.154;13.812;2022-11-20T03:46:14;99108.53;;;-3.91;69.84
39267;BME280;24967;51.154;13.812;2022-11-20T03:48:41;99104.00;;;-3.86;69.54
39267;BME280;24967;51.154;13.812;2022-11-20T03:51:12;99108.22;;;-4.02;69.21
39267;BME280;24967;51.154;13.812;2022-11-20T03:53:40;99111.00;;;-4.07;69.15
39267;BME280;24967;51.154;13.812;2022-11-20T03:56:07;99110.09;;;-4.06;69.16
39267;BME280;24967;51.154;13.812;2022-11-20T03:58:35;99116.19;;;-4.07;69.15
39267;BME280;24967;51.154;13.812;2022-11-20T04:01:05;99111.97;;;-4.09;69.29
39267;BME280;24967;51.154;13.812;2022-11-20T04:03:33;99103.31;;;-4.08;69.19
39267;BME280;24967;51.154;13.812;2022-11-20T04:06:02;99098.94;;;-4.08;69.22
39267;BME280;24967;51.154;13.812;2022-11-20T04:08:30;99102.44;;;-4.09;69.02
39267;BME280;24967;51.154;13.812;2022-11-20T04:11:07;99098.22;;;-4.11;69.12
39267;BME280;24967;51.154;13.812;2022-11-20T04:13:34;99102.53;;;-4.10;69.27
39267;BME280;24967;51.154;13.812;2022-11-20T04:16:01;99103.34;;;-4.10;69.10
39267;BME280;24967;51.154;13.812;2022-11-20T04:18:29;99093.81;;;-4.09;69.20
39267;BME280;24967;51.154;13.812;2022-11-20T04:20:57;99098.34;;;-4.15;68.96
39267;BME280;24967;51.154;13.812;2022-11-20T04:23:26;99090.72;;;-4.18;69.03
39267;BME280;24967;51.154;13.812;2022-11-20T04:25:54;99088.91;;;-4.16;69.00
39267;BME280;24967;51.154;13.812;2022-11-20T04:28:22;99088.38;;;-4.24;68.84
39267;BME280;24967;51.154;13.812;2022-11-20T04:30:50;99086.81;;;-4.26;68.82
39267;BME280;24967;51.154;13.812;2022-11-20T04:33:16;99080.25;;;-4.35;69.05
39267;BME280;24967;51.154;13.812;2022-11-20T04:35:43;99081.00;;;-4.33;69.24
39267;BME280;24967;51.154;13.812;2022-11-20T04:38:12;99077.44;;;-4.30;69.39
39267;BME280;24967;51.154;13.812;2022-11-20T04:40:40;99067.19;;;-4.33;69.33
39267;BME280;24967;51.154;13.812;2022-11-20T04:43:10;99069.75;;;-4.32;69.28
39267;BME280;24967;51.154;13.812;2022-11-20T04:45:39;99063.56;;;-4.29;69.27
39267;BME280;24967;51.154;13.812;2022-11-20T04:48:06;99065.53;;;-4.34;69.43
39267;BME280;24967;51.154;13.812;2022-11-20T04:50:32;99073.09;;;-4.30;69.08
39267;BME280;24967;51.154;13.812;2022-11-20T04:52:58;99069.66;;;-4.30;69.30
39267;BME280;24967;51.154;13.812;2022-11-20T04:55:25;99074.16;;;-4.34;69.31
39267;BME280;24967;51.154;13.812;2022-11-20T04:57:52;99074.09;;;-4.32;69.13
39267;BME280;24967;51.154;13.812;2022-11-20T05:00:20;99082.78;;;-4.33;69.37
39267;BME280;24967;51.154;13.812;2022-11-20T05:02:46;99087.34;;;-4.39;69.23
39267;BME280;24967;51.154;13.812;2022-11-20T05:05:12;99082.84;;;-4.35;69.39
39267;BME280;24967;51.154;13.812;2022-11-20T05:07:39;99088.94;;;-4.36;69.18
39267;BME280;24967;51.154;13.812;2022-11-20T05:10:06;99089.16;;;-4.41;69.26
39267;BME280;24967;51.154;13.812;2022-11-20T05:12:34;99094.91;;;-4.34;69.34
39267;BME280;24967;51.154;13.812;2022-11-20T05:15:02;99091.47;;;-4.34;69.41
39267;BME280;24967;51.154;13.812;2022-11-20T05:17:31;99088.19;;;-4.38;69.14
39267;BME280;24967;51.154;13.812;2022-11-20T05:19:59;99085.50;;;-4.37;68.94
39267;BME280;24967;51.154;13.812;2022-11-20T05:22:27;99084.03;;;-4.42;68.98
39267;BME280;24967;51.154;13.812;2022-11-20T05:24:54;99087.50;;;-4.42;69.21
39267;BME280;24967;51.154;13.812;2022-11-20T05:27:22;99082.44;;;-4.45;69.09
39267;BME280;24967;51.154;13.812;2022-11-20T05:29:50;99083.31;;;-4.46;69.31
39267;BME280;24967;51.154;13.812;2022-11-20T05:32:16;99080.66;;;-4.44;69.14
39267;BME280;24967;51.154;13.812;2022-11-20T05:34:45;99077.16;;;-4.43;69.00
39267;BME280;24967;51.154;13.812;2022-11-20T05:37:12;99080.59;;;-4.43;69.22
39267;BME280;24967;51.154;13.812;2022-11-20T05:39:39;99071.31;;;-4.48;69.17
39267;BME280;24967;51.154;13.812;2022-11-20T05:42:06;99073.88;;;-4.47;68.97
39267;BME280;24967;51.154;13.812;2022-11-20T05:44:50;99072.28;;;-4.51;68.95
39267;BME280;24967;51.154;13.812;2022-11-20T05:47:18;99071.72;;;-4.57;68.86
39267;BME280;24967;51.154;13.812;2022-11-20T05:49:47;99070.19;;;-4.62;68.88
39267;BME280;24967;51.154;13.812;2022-11-20T05:52:13;99063.94;;;-4.57;68.96
39267;BME280;24967;51.154;13.812;2022-11-20T05:54:40;99062.06;;;-4.54;69.03
39267;BME280;24967;51.154;13.812;2022-11-20T05:57:09;99062.06;;;-4.54;68.90
39267;BME280;24967;51.154;13.812;2022-11-20T05:59:36;99062.84;;;-4.72;69.08
39267;BME280;24967;51.154;13.812;2022-11-20T06:02:04;99055.72;;;-4.67;69.12
39267;BME280;24967;51.154;13.812;2022-11-20T06:04:32;99053.97;;;-4.67;69.45
39267;BME280;24967;51.154;13.812;2022-11-20T06:07:02;99054.66;;;-4.63;69.09
39267;BME280;24967;51.154;13.812;2022-11-20T06:09:29;99058.53;;;-4.72;68.97
39267;BME280;24967;51.154;13.812;2022-11-20T06:12:00;99058.59;;;-4.73;69.08
39267;BME280;24967;51.154;13.812;2022-11-20T06:14:28;99049.41;;;-4.80;69.01
39267;BME280;24967;51.154;13.812;2022-11-20T06:16:56;99053.41;;;-4.73;69.07
39267;BME280;24967;51.154;13.812;2022-11-20T06:19:23;99049.53;;;-4.84;69.26
39267;BME280;24967;51.154;13.812;2022-11-20T06:21:50;99051.03;;;-4.78;69.41
39267;BME280;24967;51.154;13.812;2022-11-20T06:24:19;99048.47;;;-4.79;69.51
39267;BME280;24967;51.154;13.812;2022-11-20T06:26:46;99049.13;;;-4.74;69.37
39267;BME280;24967;51.154;13.812;2022-11-20T06:29:14;99050.63;;;-4.69;69.33
39267;BME280;24967;51.154;13.812;2022-11-20T06:31:41;99047.03;;;-4.66;69.26
39267;BME280;24967;51.154;13.812;2022-11-20T06:34:11;99044.69;;;-4.72;69.25
39267;BME280;24967;51.154;13.812;2022-11-20T06:36:38;99046.09;;;-4.84;69.73
39267;BME280;24967;51.154;13.812;2022-11-20T06:39:06;99052.25;;;-4.87;69.84
39267;BME280;24967;51.154;13.812;2022-11-20T06:41:36;99051.59;;;-4.92;69.93
39267;BME280;24967;51.154;13.812;2022-11-20T06:44:04;99055.25;;;-4.96;70.31
39267;BME280;24967;51.154;13.812;2022-11-20T06:46:31;99050.50;;;-4.86;70.26
39267;BME280;24967;51.154;13.812;2022-11-20T06:48:58;99051.53;;;-4.90;70.38
39267;BME280;24967;51.154;13.812;2022-11-20T06:51:25;99053.22;;;-4.89;70.23
39267;BME280;24967;51.154;13.812;2022-11-20T06:53:52;99051.22;;;-4.82;70.48
39267;BME280;24967;51.154;13.812;2022-11-20T06:56:20;99044.78;;;-4.74;70.45
39267;BME280;24967;51.154;13.812;2022-11-20T06:58:50;99041.91;;;-4.68;70.25
39267;BME280;24967;51.154;13.812;2022-11-20T07:01:19;99041.91;;;-4.68;70.27
39267;BME280;24967;51.154;13.812;2022-11-20T07:03:48;99046.28;;;-4.68;70.50
39267;BME280;24967;51.154;13.812;2022-11-20T07:06:16;99041.69;;;-4.63;70.64
39267;BME280;24967;51.154;13.812;2022-11-20T07:08:42;99045.06;;;-4.80;70.84
39267;BME280;24967;51.154;13.812;2022-11-20T07:11:11;99035.91;;;-4.68;71.01
39267;BME280;24967;51.154;13.812;2022-11-20T07:13:38;99040.13;;;-4.66;71.08
39267;BME280;24967;51.154;13.812;2022-11-20T07:16:07;99034.72;;;-4.61;71.11
39267;BME280;24967;51.154;13.812;2022-11-20T07:18:33;99032.53;;;-4.51;71.00
39267;BME280;24967;51.154;13.812;2022-11-20T07:21:00;99030.59;;;-4.46;71.09
39267;BME280;24967;51.154;13.812;2022-11-20T07:23:28;99035.59;;;-4.42;70.95
39267;BME280;24967;51.154;13.812;2022-11-20T07:25:55;99035.38;;;-4.37;70.93
39267;BME280;24967;51.154;13.812;2022-11-20T07:28:22;99040.69;;;-4.40;71.14
39267;BME280;24967;51.154;13.812;2022-11-20T07:30:51;99022.25;;;-4.34;71.27
39267;BME280;24967;51.154;13.812;2022-11-20T07:33:20;99027.16;;;-4.28;71.74
39267;BME280;24967;51.154;13.812;2022-11-20T07:35:48;99027.00;;;-4.25;71.76
39267;BME280;24967;51.154;13.812;2022-11-20T07:38:16;99025.41;;;-4.27;73.11
39267;BME280;24967;51.154;13.812;2022-11-20T07:40:44;99025.81;;;-4.18;73.92
39267;BME280;24967;51.154;13.812;2022-11-20T07:43:11;99029.88;;;-4.12;74.41
39267;BME280;24967;51.154;13.812;2022-11-20T07:45:39;99023.09;;;-3.96;74.36
39267;BME280;24967;51.154;13.812;2022-11-20T07:48:07;99024.25;;;-3.84;74.12
39267;BME280;24967;51.154;13.812;2022-11-20T07:50:37;99024.81;;;-3.77;73.80
39267;BME280;24967;51.154;13.812;2022-11-20T07:53:06;99023.53;;;-3.69;73.69
39267;BME280;24967;51.154;13.812;2022-11-20T07:55:33;99025.69;;;-3.59;74.08
39267;BME280;24967;51.154;13.812;2022-11-20T07:58:01;99025.38;;;-3.53;73.90
39267;BME280;24967;51.154;13.812;2022-11-20T08:00:29;99015.38;;;-3.43;73.98
39267;BME280;24967;51.154;13.812;2022-11-20T08:02:57;99013.97;;;-3.33;74.46
39267;BME280;24967;51.154;13.812;2022-11-20T08:05:25;99011.69;;;-3.22;73.98
39267;BME280;24967;51.154;13.812;2022-11-20T08:07:54;99005.81;;;-3.08;74.02
39267;BME280;24967;51.154;13.812;2022-11-20T08:10:22;99006.34;;;-3.02;74.51
39267;BME280;24967;51.154;13.812;2022-11-20T08:12:50;99017.88;;;-2.90;74.06
39267;BME280;24967;51.154;13.812;2022-11-20T08:15:34;99026.72;;;-2.77;74.44
39267;BME280;24967;51.154;13.812;2022-11-20T08:18:02;99021.81;;;-2.65;74.20
39267;BME280;24967;51.154;13.812;2022-11-20T08:20:31;99018.56;;;-2.53;74.73
39267;BME280;24967;51.154;13.812;2022-11-20T08:23:00;99008.81;;;-2.49;75.41
39267;BME280;24967;51.154;13.812;2022-11-20T08:25:28;98999.19;;;-2.47;75.67
39267;BME280;24967;51.154;13.812;2022-11-20T08:27:57;98999.09;;;-2.30;75.78
39267;BME280;24967;51.154;13.812;2022-11-20T08:30:24;99000.78;;;-2.13;75.83
39267;BME280;24967;51.154;13.812;2022-11-20T08:32:53;98996.84;;;-2.04;76.42
39267;BME280;24967;51.154;13.812;2022-11-20T08:35:21;99000.19;;;-1.87;76.49
39267;BME280;24967;51.154;13.812;2022-11-20T08:37:49;99004.41;;;-1.84;77.38
39267;BME280;24967;51.154;13.812;2022-11-20T08:40:18;99005.66;;;-1.75;77.29
39267;BME280;24967;51.154;13.812;2022-11-20T08:42:46;99008.59;;;-1.81;77.22
39267;BME280;24967;51.154;13.812;2022-11-20T08:45:15;99015.16;;;-1.74;77.67
39267;BME280;24967;51.154;13.812;2022-11-20T08:47:43;99015.38;;;-1.79;78.23
39267;BME280;24967;51.154;13.812;2022-11-20T08:50:11;99018.66;;;-1.59;77.88
39267;BME280;24967;51.154;13.812;2022-11-20T08:52:39;99016.66;;;-1.40;78.15
39267;BME280;24967;51.154;13.812;2022-11-20T08:55:07;99009.66;;;-1.24;79.42
39267;BME280;24967;51.154;13.812;2022-11-20T08:57:37;99001.75;;;-1.08;79.77
39267;BME280;24967;51.154;13.812;2022-11-20T09:00:05;98994.97;;;-0.82;81.42
39267;BME280;24967;51.154;13.812;2022-11-20T09:02:33;98983.34;;;-0.62;81.88
39267;BME280;24967;51.154;13.812;2022-11-20T09:05:01;98989.66;;;-0.23;83.77
39267;BME280;24967;51.154;13.812;2022-11-20T09:07:29;98985.22;;;0.06;83.23
39267;BME280;24967;51.154;13.812;2022-11-20T09:09:56;98986.97;;;0.06;79.60
39267;BME280;24967;51.154;13.812;2022-11-20T09:12:24;98973.38;;;0.28;78.30
39267;BME280;24967;51.154;13.812;2022-11-20T09:14:52;98973.66;;;0.63;79.42
39267;BME280;24967;51.154;13.812;2022-11-20T09:17:20;98969.31;;;0.89;78.39
39267;BME280;24967;51.154;13.812;2022-11-20T09:19:47;98974.75;;;1.11;77.31
39267;BME280;24967;51.154;13.812;2022-11-20T09:22:18;98968.91;;;1.33;76.79
39267;BME280;24967;51.154;13.812;2022-11-20T09:25:19;98970.66;;;1.46;76.57
39267;BME280;24967;51.154;13.812;2022-11-20T09:27:47;98966.41;;;1.69;75.67
39267;BME280;24967;51.154;13.812;2022-11-20T09:30:16;98970.03;;;1.92;74.38
39267;BME280;24967;51.154;13.812;2022-11-20T09:32:43;98978.94;;;1.89;72.75
39267;BME280;24967;51.154;13.812;2022-11-20T09:35:10;98983.72;;;2.08;72.49
39267;BME280;24967;51.154;13.812;2022-11-20T09:37:39;98977.69;;;2.19;73.18
39267;BME280;24967;51.154;13.812;2022-11-20T09:40:06;98980.09;;;2.22;71.10
39267;BME280;24967;51.154;13.812;2022-11-20T09:42:35;98970.38;;;2.35;70.06
39267;BME280;24967;51.154;13.812;2022-11-20T09:45:20;98970.22;;;2.25;67.75
39267;BME280;24967;51.154;13.812;2022-11-20T09:48:08;98966.69;;;2.38;66.10
39267;BME280;24967;51.154;13.812;2022-11-20T09:50:42;98963.78;;;2.53;69.00
39267;BME280;24967;51.154;13.812;2022-11-20T09:53:13;98959.44;;;2.41;67.85
39267;BME280;24967;51.154;13.812;2022-11-20T09:55:46;98959.50;;;2.28;64.52
39267;BME280;24967;51.154;13.812;2022-11-20T09:58:15;98950.41;;;2.45;63.16
39267;BME280;24967;51.154;13.812;2022-11-20T10:00:44;98954.47;;;2.01;62.79
39267;BME280;24967;51.154;13.812;2022-11-20T10:03:13;98942.66;;;2.20;60.41
39267;BME280;24967;51.154;13.812;2022-11-20T10:05:44;98951.56;;;1.93;63.23
39267;BME280;24967;51.154;13.812;2022-11-20T10:08:14;98936.91;;;1.91;63.29
39267;BME280;24967;51.154;13.812;2022-11-20T10:10:43;98934.13;;;2.05;63.05
39267;BME280;24967;51.154;13.812;2022-11-20T10:13:15;98951.34;;;2.20;64.68
39267;BME280;24967;51.154;13.812;2022-11-20T10:15:51;98950.44;;;2.33;63.26
39267;BME280;24967;51.154;13.812;2022-11-20T10:18:23;98943.84;;;2.16;62.05
39267;BME280;24967;51.154;13.812;2022-11-20T10:20:56;98949.63;;;2.08;61.58
39267;BME280;24967;51.154;13.812;2022-11-20T10:26:14;98942.13;;;2.39;60.71
39267;BME280;24967;51.154;13.812;2022-11-20T10:28:46;98939.41;;;2.16;60.73
39267;BME280;24967;51.154;13.812;2022-11-20T10:31:23;98928.34;;;2.24;60.28
39267;BME280;24967;51.154;13.812;2022-11-20T10:33:51;98923.34;;;2.21;59.94
39267;BME280;24967;51.154;13.812;2022-11-20T10:36:22;98922.00;;;2.39;59.50
39267;BME280;24967;51.154;13.812;2022-11-20T10:38:51;98923.44;;;2.43;61.63
39267;BME280;24967;51.154;13.812;2022-11-20T10:41:22;98916.06;;;2.60;63.12
39267;BME280;24967;51.154;13.812;2022-11-20T10:43:52;98921.59;;;2.68;63.08
39267;BME280;24967;51.154;13.812;2022-11-20T10:46:22;98918.94;;;2.45;62.79
39267;BME280;24967;51.154;13.812;2022-11-20T10:48:50;98922.53;;;2.56;63.20
39267;BME280;24967;51.154;13.812;2022-11-20T10:51:21;98927.34;;;2.38;61.90
39267;BME280;24967;51.154;13.812;2022-11-20T10:53:57;98930.66;;;2.64;58.26
39267;BME280;24967;51.154;13.812;2022-11-20T10:56:27;98915.25;;;2.24;60.03
39267;BME280;24967;51.154;13.812;2022-11-20T11:01:42;98914.03;;;2.17;62.18
39267;BME280;24967;51.154;13.812;2022-11-20T11:04:15;98919.28;;;2.17;61.29
39267;BME280;24967;51.154;13.812;2022-11-20T11:06:47;98927.13;;;2.41;61.90
39267;BME280;24967;51.154;13.812;2022-11-20T11:09:16;98917.38;;;2.43;61.35
39267;BME280;24967;51.154;13.812;2022-11-20T11:11:44;98912.78;;;2.34;63.69
39267;BME280;24967;51.154;13.812;2022-11-20T11:14:11;98897.84;;;2.23;63.33
39267;BME280;24967;51.154;13.812;2022-11-20T11:16:44;98899.41;;;2.25;63.53
39267;BME280;24967;51.154;13.812;2022-11-20T11:19:17;98899.13;;;2.17;62.82
39267;BME280;24967;51.154;13.812;2022-11-20T11:21:45;98891.34;;;2.40;62.98
39267;BME280;24967;51.154;13.812;2022-11-20T11:24:15;98894.63;;;2.55;61.83
39267;BME280;24967;51.154;13.812;2022-11-20T11:26:50;98894.91;;;2.39;61.80
39267;BME280;24967;51.154;13.812;2022-11-20T11:29:17;98883.91;;;2.22;62.16
39267;BME280;24967;51.154;13.812;2022-11-20T11:31:44;98889.19;;;2.45;61.52
39267;BME280;24967;51.154;13.812;2022-11-20T11:34:12;98873.84;;;2.63;62.34
39267;BME280;24967;51.154;13.812;2022-11-20T11:36:47;98870.28;;;2.52;62.26
39267;BME280;24967;51.154;13.812;2022-11-20T11:39:15;98865.03;;;2.52;63.08
39267;BME280;24967;51.154;13.812;2022-11-20T11:41:44;98863.44;;;2.39;62.27
39267;BME280;24967;51.154;13.812;2022-11-20T11:44:14;98855.22;;;2.43;63.51
39267;BME280;24967;51.154;13.812;2022-11-20T11:46:59;98848.41;;;2.41;64.39
39267;BME280;24967;51.154;13.812;2022-11-20T11:49:26;98850.75;;;2.21;63.30
39267;BME280;24967;51.154;13.812;2022-11-20T11:52:00;98835.84;;;2.22;63.99
39267;BME280;24967;51.154;13.812;2022-11-20T11:54:30;98840.88;;;2.25;63.73
39267;BME280;24967;51.154;13.812;2022-11-20T11:56:59;98847.03;;;2.13;63.52
39267;BME280;24967;51.154;13.812;2022-11-20T11:59:27;98843.63;;;1.99;63.94
39267;BME280;24967;51.154;13.812;2022-11-20T12:01:59;98839.53;;;1.84;65.24
39267;BME280;24967;51.154;13.812;2022-11-20T12:04:34;98844.81;;;1.71;66.23
39267;BME280;24967;51.154;13.812;2022-11-20T12:07:08;98834.16;;;1.37;67.17
39267;BME280;24967;51.154;13.812;2022-11-20T12:09:37;98833.88;;;1.29;67.89
39267;BME280;24967;51.154;13.812;2022-11-20T12:12:08;98828.63;;;1.29;68.06
39267;BME280;24967;51.154;13.812;2022-11-20T12:14:37;98825.28;;;1.64;67.46
39267;BME280;24967;51.154;13.812;2022-11-20T12:17:04;98827.66;;;1.67;67.13
39267;BME280;24967;51.154;13.812;2022-11-20T12:19:33;98830.13;;;1.57;66.96
39267;BME280;24967;51.154;13.812;2022-11-20T12:22:02;98830.66;;;1.74;66.82
39267;BME280;24967;51.154;13.812;2022-11-20T12:24:44;98831.06;;;1.80;66.07
39267;BME280;24967;51.154;13.812;2022-11-20T12:29:56;98838.81;;;1.58;66.88
39267;BME280;24967;51.154;13.812;2022-11-20T12:32:41;98835.59;;;1.42;68.05
39267;BME280;24967;51.154;13.812;2022-11-20T12:35:13;98827.56;;;1.32;68.67
39267;BME280;24967;51.154;13.812;2022-11-20T12:37:46;98827.28;;;1.60;67.56
39267;BME280;24967;51.154;13.812;2022-11-20T12:40:27;98830.97;;;1.58;67.81
39267;BME280;24967;51.154;13.812;2022-11-20T12:42:57;98825.19;;;1.53;67.18
39267;BME280;24967;51.154;13.812;2022-11-20T12:45:56;98836.06;;;1.59;67.98
39267;BME280;24967;51.154;13.812;2022-11-20T12:48:33;98832.28;;;1.88;66.67
39267;BME280;24967;51.154;13.812;2022-11-20T12:51:13;98835.25;;;1.59;64.89
39267;BME280;24967;51.154;13.812;2022-11-20T12:53:45;98834.94;;;1.51;65.11
39267;BME280;24967;51.154;13.812;2022-11-20T12:56:20;98834.34;;;1.71;64.79
39267;BME280;24967;51.154;13.812;2022-11-20T12:58:49;98834.94;;;1.75;64.31
39267;BME280;24967;51.154;13.812;2022-11-20T13:01:24;98841.22;;;1.85;65.02
39267;BME280;24967;51.154;13.812;2022-11-20T13:04:08;98837.31;;;1.91;64.37
39267;BME280;24967;51.154;13.812;2022-11-20T13:06:37;98833.16;;;1.99;64.35
39267;BME280;24967;51.154;13.812;2022-11-20T13:09:06;98826.81;;;1.91;64.06
39267;BME280;24967;51.154;13.812;2022-11-20T13:11:37;98833.16;;;1.75;64.72